createdAt,value
2022-09-02T00:02:25.110Z,9.75
2022-09-02T00:04:52.107Z,9.98
2022-09-02T00:07:19.008Z,8.15
2022-09-02T00:09:45.940Z,6.50
2022-09-02T00:12:12.983Z,7.47
2022-09-02T00:14:40.201Z,8.50
2022-09-02T00:17:07.173Z,5.63
2022-09-02T00:19:35.042Z,7.03
2022-09-02T00:22:03.480Z,7.23
2022-09-02T00:24:31.455Z,6.87
2022-09-02T00:26:58.606Z,6.10
2022-09-02T00:29:27.679Z,4.95
2022-09-02T00:31:55.086Z,6.30
2022-09-02T00:34:22.358Z,13.20
2022-09-02T00:36:49.421Z,8.20
2022-09-02T00:39:17.159Z,6.77
2022-09-02T00:41:44.917Z,10.47
2022-09-02T00:44:16.913Z,7.87
2022-09-02T00:46:44.775Z,6.40
2022-09-02T00:49:27.526Z,7.50
2022-09-02T00:52:08.356Z,7.90
2022-09-02T00:54:41.851Z,10.60
2022-09-02T00:57:13.568Z,9.70
2022-09-02T01:00:13.885Z,7.70
2022-09-02T01:02:42.673Z,6.03
2022-09-02T01:05:13.406Z,7.73
2022-09-02T01:07:40.816Z,12.87
2022-09-02T01:10:13.749Z,8.47
2022-09-02T01:12:41.242Z,5.67
2022-09-02T01:15:11.790Z,5.70
2022-09-02T01:17:47.743Z,7.77
2022-09-02T01:20:21.201Z,8.00
2022-09-02T01:22:54.836Z,6.90
2022-09-02T01:25:27.397Z,8.90
2022-09-02T01:28:01.038Z,6.27
2022-09-02T01:30:29.088Z,8.53
2022-09-02T01:32:56.243Z,6.03
2022-09-02T01:35:23.522Z,14.70
2022-09-02T01:37:56.019Z,11.27
2022-09-02T01:40:24.480Z,10.17
2022-09-02T01:42:59.739Z,8.20
2022-09-02T01:45:26.832Z,8.67
2022-09-02T01:47:53.836Z,6.77
2022-09-02T01:50:21.553Z,9.43
2022-09-02T01:52:48.502Z,7.17
2022-09-02T01:55:15.408Z,9.50
2022-09-02T01:57:42.390Z,10.77
2022-09-02T02:00:11.970Z,7.10
2022-09-02T02:02:39.386Z,5.73
2022-09-02T02:05:07.225Z,10.40
2022-09-02T02:07:34.353Z,6.30
2022-09-02T02:10:01.284Z,9.30
2022-09-02T02:12:28.435Z,12.13
2022-09-02T02:14:55.343Z,8.23
2022-09-02T02:17:23.121Z,10.37
2022-09-02T02:19:50.088Z,10.60
2022-09-02T02:22:17.477Z,13.00
2022-09-02T02:24:44.469Z,10.60
2022-09-02T02:27:11.602Z,10.33
2022-09-02T02:29:38.600Z,9.03
2022-09-02T02:32:07.475Z,9.83
2022-09-02T02:34:35.247Z,10.50
2022-09-02T02:37:02.349Z,6.50
2022-09-02T02:39:29.263Z,10.43
2022-09-02T02:41:56.240Z,11.37
2022-09-02T02:44:23.934Z,11.73
2022-09-02T02:46:50.992Z,7.03
2022-09-02T02:49:18.052Z,10.73
2022-09-02T02:51:47.868Z,11.33
2022-09-02T02:54:14.978Z,11.77
2022-09-02T02:56:42.457Z,13.00
2022-09-02T02:59:09.554Z,9.97
2022-09-02T03:01:36.568Z,9.80
2022-09-02T03:04:04.657Z,14.47
2022-09-02T03:06:31.692Z,11.50
2022-09-02T03:09:00.627Z,13.57
2022-09-02T03:11:28.508Z,14.37
2022-09-02T03:13:55.968Z,13.43
2022-09-02T03:16:23.378Z,9.60
2022-09-02T03:18:51.304Z,12.57
2022-09-02T03:21:19.204Z,12.27
2022-09-02T03:23:47.379Z,11.83
2022-09-02T03:26:21.053Z,11.73
2022-09-02T03:28:49.405Z,9.33
2022-09-02T03:31:21.471Z,9.20
2022-09-02T03:33:48.434Z,12.10
2022-09-02T03:36:31.950Z,9.30
2022-09-02T03:38:59.105Z,11.27
2022-09-02T03:41:26.469Z,13.67
2022-09-02T03:43:53.436Z,11.80
2022-09-02T03:46:20.603Z,15.63
2022-09-02T03:48:49.156Z,15.63
2022-09-02T03:51:16.206Z,9.80
2022-09-02T03:53:43.124Z,11.17
2022-09-02T03:56:13.188Z,8.40
2022-09-02T03:58:44.274Z,11.00
2022-09-02T04:01:21.085Z,10.57
2022-09-02T04:03:48.346Z,11.03
2022-09-02T04:06:17.435Z,11.53
2022-09-02T04:08:45.133Z,11.70
2022-09-02T04:11:17.803Z,10.47
2022-09-02T04:13:46.764Z,11.77
2022-09-02T04:16:19.566Z,11.17
2022-09-02T04:18:46.972Z,11.40
2022-09-02T04:21:14.689Z,8.90
2022-09-02T04:23:41.765Z,13.10
2022-09-02T04:26:13.641Z,7.00
2022-09-02T04:28:41.308Z,13.67
2022-09-02T04:31:12.008Z,12.27
2022-09-02T04:33:39.805Z,11.00
2022-09-02T04:36:10.040Z,11.97
2022-09-02T04:38:40.352Z,11.50
2022-09-02T04:41:14.673Z,12.30
2022-09-02T04:43:42.253Z,10.87
2022-09-02T04:46:13.676Z,11.07
2022-09-02T04:48:44.312Z,9.43
2022-09-02T04:51:16.584Z,10.93
2022-09-02T04:53:45.754Z,10.57
2022-09-02T04:56:17.151Z,9.43
2022-09-02T04:58:44.623Z,11.63
2022-09-02T05:01:16.899Z,12.03
2022-09-02T05:03:45.507Z,14.20
2022-09-02T05:06:18.975Z,13.20
2022-09-02T05:08:48.340Z,10.70
2022-09-02T05:11:20.538Z,10.30
2022-09-02T05:13:51.578Z,8.23
2022-09-02T05:16:22.806Z,8.27
2022-09-02T05:18:51.888Z,10.00
2022-09-02T05:21:19.819Z,13.40
2022-09-02T05:23:47.053Z,11.43
2022-09-02T05:26:14.242Z,7.43
2022-09-02T05:28:42.949Z,10.53
2022-09-02T05:31:13.804Z,9.00
2022-09-02T05:33:42.222Z,10.60
2022-09-02T05:36:14.441Z,9.53
2022-09-02T05:38:43.456Z,11.33
2022-09-02T05:41:18.227Z,13.87
2022-09-02T05:43:45.973Z,13.30
2022-09-02T05:46:21.152Z,10.90
2022-09-02T05:49:18.587Z,11.93
2022-09-02T05:51:55.721Z,13.93
2022-09-02T05:54:30.227Z,9.17
2022-09-02T05:57:01.728Z,13.57
2022-09-02T05:59:30.867Z,11.07
2022-09-02T06:01:59.800Z,12.73
2022-09-02T06:04:26.876Z,18.23
2022-09-02T06:06:53.881Z,8.90
2022-09-02T06:09:24.230Z,10.53
2022-09-02T06:11:52.176Z,15.63
2022-09-02T06:14:25.373Z,10.73
2022-09-02T06:16:54.977Z,13.40
2022-09-02T06:19:28.910Z,10.15
2022-09-02T06:21:57.340Z,10.18
2022-09-02T06:24:25.098Z,13.10
2022-09-02T06:26:55.611Z,14.48
2022-09-02T06:29:25.615Z,12.55
2022-09-02T06:31:52.998Z,14.25
2022-09-02T06:34:22.690Z,15.18
2022-09-02T06:36:50.767Z,12.70
2022-09-02T06:39:21.730Z,16.40
2022-09-02T06:41:49.441Z,12.57
2022-09-02T06:44:18.406Z,12.05
2022-09-02T06:46:54.416Z,13.55
2022-09-02T06:49:23.070Z,10.05
2022-09-02T06:51:52.256Z,15.30
2022-09-02T06:54:21.800Z,13.35
2022-09-02T06:56:51.045Z,11.43
2022-09-02T06:59:20.568Z,12.05
2022-09-02T07:01:48.783Z,11.77
2022-09-02T07:04:35.812Z,8.40
2022-09-02T07:07:06.302Z,9.48
2022-09-02T07:09:33.516Z,12.02
2022-09-02T07:12:05.137Z,8.40
2022-09-02T07:14:41.457Z,7.70
2022-09-02T07:17:10.691Z,7.53
2022-09-02T07:19:38.091Z,10.00
2022-09-02T07:22:08.707Z,8.63
2022-09-02T07:24:37.635Z,8.18
2022-09-02T07:27:05.913Z,8.30
2022-09-02T07:29:34.335Z,7.80
2022-09-02T07:32:02.188Z,10.57
2022-09-02T07:34:29.338Z,13.70
2022-09-02T07:37:00.236Z,6.90
2022-09-02T07:39:30.359Z,8.75
2022-09-02T07:41:57.316Z,9.60
2022-09-02T07:44:24.959Z,7.07
2022-09-02T07:46:52.511Z,9.40
2022-09-02T07:49:23.973Z,6.30
2022-09-02T07:51:52.123Z,9.15
2022-09-02T07:54:23.799Z,9.30
2022-09-02T07:56:51.464Z,11.82
2022-09-02T07:59:19.516Z,7.68
2022-09-02T08:01:48.374Z,6.85
2022-09-02T08:04:16.432Z,6.07
2022-09-02T08:06:43.373Z,7.82
2022-09-02T08:09:11.413Z,7.90
2022-09-02T08:11:41.699Z,7.97
2022-09-02T08:14:12.041Z,8.68
2022-09-02T08:16:40.219Z,9.05
2022-09-02T08:19:08.365Z,8.60
2022-09-02T08:21:35.576Z,9.70
2022-09-02T08:24:03.066Z,8.32
2022-09-02T08:26:30.419Z,7.85
2022-09-02T08:28:57.682Z,8.05
2022-09-02T08:31:24.673Z,7.82
2022-09-02T08:33:51.583Z,7.20
2022-09-02T08:36:19.169Z,6.28
2022-09-02T08:38:46.097Z,7.90
2022-09-02T08:41:31.038Z,9.65
2022-09-02T08:44:01.023Z,8.30
2022-09-02T08:46:31.591Z,8.20
2022-09-02T08:49:19.319Z,12.63
2022-09-02T08:51:53.228Z,14.77
2022-09-02T08:54:30.484Z,11.88
2022-09-02T08:56:58.130Z,6.68
2022-09-02T08:59:28.034Z,7.78
2022-09-02T09:02:27.570Z,6.25
2022-09-02T09:05:23.934Z,10.88
2022-09-02T09:08:23.202Z,10.52
2022-09-02T09:11:06.021Z,9.55
2022-09-02T09:13:56.936Z,11.93
2022-09-02T09:16:43.395Z,8.07
2022-09-02T09:19:48.722Z,12.00
2022-09-02T09:22:25.063Z,7.07
2022-09-02T09:24:52.072Z,10.90
2022-09-02T09:27:22.318Z,10.05
2022-09-02T09:29:51.399Z,11.60
2022-09-02T09:32:33.483Z,7.25
2022-09-02T09:35:09.997Z,8.05
2022-09-02T09:37:51.755Z,9.45
2022-09-02T09:40:21.604Z,5.55
2022-09-02T09:42:55.349Z,5.82
2022-09-02T09:45:32.354Z,5.28
2022-09-02T09:48:17.335Z,8.38
2022-09-02T09:50:46.696Z,8.13
2022-09-02T09:53:24.249Z,13.38
2022-09-02T09:55:54.352Z,8.35
2022-09-02T09:58:46.429Z,10.27
2022-09-02T10:01:15.541Z,8.15
2022-09-02T10:03:49.839Z,9.98
2022-09-02T10:06:38.592Z,5.53
2022-09-02T10:09:14.566Z,5.65
2022-09-02T10:12:05.130Z,5.63
2022-09-02T10:14:45.067Z,9.90
2022-09-02T10:17:45.851Z,9.43
2022-09-02T10:21:04.886Z,8.40
2022-09-02T10:23:41.495Z,5.18
2022-09-02T10:26:49.393Z,5.80
2022-09-02T10:29:49.077Z,5.35
2022-09-02T10:32:35.990Z,6.88
2022-09-02T10:35:29.283Z,8.80
2022-09-02T10:38:42.525Z,5.55
2022-09-02T10:44:24.481Z,4.47
2022-09-02T10:47:04.308Z,4.78
2022-09-02T10:50:08.016Z,3.67
2022-09-02T10:53:25.962Z,5.50
2022-09-02T10:55:58.687Z,6.05
2022-09-02T10:58:40.824Z,5.43
2022-09-02T11:01:16.234Z,5.45
2022-09-02T11:04:04.759Z,3.90
2022-09-02T11:07:01.426Z,4.75
2022-09-02T11:09:44.214Z,6.20
2022-09-02T11:12:29.716Z,4.25
2022-09-02T11:15:24.229Z,5.20
2022-09-02T11:18:33.430Z,3.50
2022-09-02T11:21:38.980Z,4.38
2022-09-02T11:24:20.308Z,11.43
2022-09-02T11:27:25.982Z,17.85
2022-09-02T11:30:13.510Z,3.95
2022-09-02T11:33:14.719Z,3.95
2022-09-02T11:35:45.031Z,4.32
2022-09-02T11:38:35.888Z,5.22
2022-09-02T11:41:37.467Z,5.20
2022-09-02T11:44:52.158Z,4.53
2022-09-02T11:47:56.465Z,3.83
2022-09-02T11:50:39.273Z,10.77
2022-09-02T11:53:27.613Z,6.57
2022-09-02T11:56:18.568Z,7.32
2022-09-02T11:58:51.223Z,8.77
2022-09-02T12:01:31.689Z,7.75
2022-09-02T12:07:09.857Z,14.75
2022-09-02T12:09:56.847Z,5.95
2022-09-02T12:12:39.245Z,4.30
2022-09-02T12:15:06.661Z,6.35
2022-09-02T12:18:14.831Z,4.95
2022-09-02T12:20:42.654Z,6.13
2022-09-02T12:23:53.881Z,6.30
2022-09-02T12:26:25.913Z,4.85
2022-09-02T12:28:54.976Z,5.35
2022-09-02T12:31:43.339Z,8.73
2022-09-02T12:34:25.346Z,7.57
2022-09-02T12:37:02.695Z,6.88
2022-09-02T12:39:30.364Z,6.30
2022-09-02T12:42:12.762Z,4.40
2022-09-02T12:45:05.588Z,4.55
2022-09-02T12:48:12.238Z,9.70
2022-09-02T12:50:56.462Z,5.88
2022-09-02T12:53:35.284Z,10.82
2022-09-02T12:56:23.630Z,5.70
2022-09-02T12:59:02.538Z,6.22
2022-09-02T13:02:00.320Z,5.95
2022-09-02T13:04:46.645Z,7.38
2022-09-02T13:07:50.384Z,4.20
2022-09-02T13:10:58.126Z,6.00
2022-09-02T13:13:36.850Z,4.95
2022-09-02T13:16:28.882Z,4.25
2022-09-02T13:19:21.749Z,2.85
2022-09-02T13:22:26.531Z,3.55
2022-09-02T13:26:03.592Z,7.30
2022-09-02T13:29:06.623Z,5.68
2022-09-02T13:31:34.143Z,6.65
2022-09-02T13:34:08.182Z,5.22
2022-09-02T13:36:44.391Z,8.27
2022-09-02T13:39:27.227Z,5.18
2022-09-02T13:41:55.000Z,5.63
2022-09-02T13:44:31.731Z,3.75
2022-09-02T13:47:20.763Z,4.32
2022-09-02T13:49:51.990Z,4.72
2022-09-02T13:53:01.114Z,3.78
2022-09-02T13:55:14.695Z,3.63
2022-09-02T13:57:50.169Z,3.30
2022-09-02T14:00:33.341Z,7.97
2022-09-02T14:03:24.124Z,4.07
2022-09-02T14:05:53.651Z,7.90
2022-09-02T14:08:25.970Z,4.00
2022-09-02T14:10:54.010Z,5.78
2022-09-02T14:13:22.620Z,5.78
2022-09-02T14:15:49.620Z,4.90
2022-09-02T14:18:22.913Z,5.80
2022-09-02T14:21:00.267Z,5.05
2022-09-02T14:23:33.415Z,8.15
2022-09-02T14:26:02.163Z,3.05
2022-09-02T14:28:38.459Z,3.78
2022-09-02T14:31:08.644Z,5.00
2022-09-02T14:33:44.899Z,3.10
2022-09-02T14:36:17.900Z,5.65
2022-09-02T14:38:47.823Z,5.72
2022-09-02T14:41:17.653Z,4.07
2022-09-02T14:44:12.033Z,4.47
2022-09-02T14:46:45.739Z,5.28
2022-09-02T14:49:28.997Z,4.40
2022-09-02T14:52:04.022Z,6.45
2022-09-02T14:54:41.445Z,3.15
2022-09-02T14:57:32.825Z,6.80
2022-09-02T15:00:06.914Z,12.38
2022-09-02T15:02:36.231Z,15.13
2022-09-02T15:05:10.058Z,13.00
2022-09-02T15:07:37.169Z,8.80
2022-09-02T15:10:09.174Z,15.95
2022-09-02T15:12:49.986Z,9.13
2022-09-02T15:15:17.816Z,11.15
2022-09-02T15:17:44.756Z,7.15
2022-09-02T15:20:12.213Z,8.52
2022-09-02T15:22:39.237Z,14.68
2022-09-02T15:25:08.588Z,7.38
2022-09-02T15:27:37.026Z,5.57
2022-09-02T15:30:06.333Z,9.05
2022-09-02T15:32:33.276Z,8.88
2022-09-02T15:35:00.159Z,7.65
2022-09-02T15:37:27.919Z,8.63
2022-09-02T15:39:55.272Z,4.78
2022-09-02T15:42:22.508Z,4.22
2022-09-02T15:44:49.566Z,8.27
2022-09-02T15:47:16.498Z,5.65
2022-09-02T15:49:47.425Z,5.57
2022-09-02T15:52:14.354Z,6.65
2022-09-02T15:54:41.771Z,5.18
2022-09-02T15:57:08.789Z,4.68
2022-09-02T15:59:35.759Z,6.30
2022-09-02T16:02:03.509Z,3.95
2022-09-02T16:04:30.716Z,6.80
2022-09-02T16:07:01.339Z,5.82
2022-09-02T16:09:34.132Z,6.10
2022-09-02T16:12:01.227Z,5.78
2022-09-02T16:14:28.547Z,5.97
2022-09-02T16:16:55.963Z,7.22
2022-09-02T16:19:27.635Z,5.03
2022-09-02T16:22:00.389Z,7.97
2022-09-02T16:24:27.439Z,5.72
2022-09-02T16:26:54.358Z,7.20
2022-09-02T16:29:21.420Z,6.50
2022-09-02T16:32:02.145Z,6.32
2022-09-02T16:34:41.137Z,6.10
2022-09-02T16:37:08.133Z,7.82
2022-09-02T16:39:35.671Z,5.25
2022-09-02T16:42:13.891Z,6.78
2022-09-02T16:44:41.510Z,9.43
2022-09-02T16:47:08.564Z,6.22
2022-09-02T16:49:39.870Z,7.03
2022-09-02T16:52:07.030Z,4.32
2022-09-02T16:54:40.073Z,3.97
2022-09-02T16:57:07.996Z,4.72
2022-09-02T16:59:35.002Z,8.32
2022-09-02T17:02:06.244Z,6.50
2022-09-02T17:04:33.359Z,4.07
2022-09-02T17:07:00.379Z,5.10
2022-09-02T17:09:27.272Z,7.15
2022-09-02T17:11:54.495Z,13.15
2022-09-02T17:14:21.901Z,6.90
2022-09-02T17:16:51.698Z,5.05
2022-09-02T17:19:24.450Z,6.32
2022-09-02T17:21:55.041Z,6.93
2022-09-02T17:24:24.975Z,8.68
2022-09-02T17:26:55.972Z,4.97
2022-09-02T17:29:48.998Z,4.40
2022-09-02T17:32:16.768Z,6.70
2022-09-02T17:34:43.656Z,6.00
2022-09-02T17:37:10.786Z,6.88
2022-09-02T17:39:38.066Z,7.32
2022-09-02T17:42:06.737Z,6.65
2022-09-02T17:44:37.633Z,7.32
2022-09-02T17:47:21.146Z,6.95
2022-09-02T17:49:52.433Z,4.10
2022-09-02T17:52:47.152Z,8.27
2022-09-02T17:55:14.905Z,5.95
2022-09-02T17:58:03.764Z,6.95
2022-09-02T18:00:39.795Z,12.02
2022-09-02T18:03:32.796Z,9.07
2022-09-02T18:06:31.142Z,6.65
2022-09-02T18:09:11.681Z,5.80
2022-09-02T18:11:51.710Z,6.95
2022-09-02T18:14:48.650Z,5.20
2022-09-02T18:17:40.945Z,6.88
2022-09-02T18:20:36.100Z,7.22
2022-09-02T18:23:24.279Z,6.85
2022-09-02T18:26:03.750Z,6.15
2022-09-02T18:28:59.306Z,5.90
2022-09-02T18:31:44.507Z,5.72
2022-09-02T18:35:01.519Z,6.95
2022-09-02T18:38:10.825Z,5.30
2022-09-02T18:41:01.954Z,5.45
2022-09-02T18:44:36.419Z,5.25
2022-09-02T18:47:10.626Z,4.85
2022-09-02T18:49:42.681Z,9.45
2022-09-02T18:52:24.532Z,5.97
2022-09-02T18:55:06.706Z,8.77
2022-09-02T18:58:00.182Z,5.97
2022-09-02T19:00:28.345Z,4.45
2022-09-02T19:03:09.848Z,5.82
2022-09-02T19:05:37.044Z,6.72
2022-09-02T19:08:32.879Z,5.35
2022-09-02T19:11:14.976Z,4.88
2022-09-02T19:14:00.966Z,5.13
2022-09-02T19:16:38.226Z,5.20
2022-09-02T19:19:21.032Z,4.55
2022-09-02T19:22:10.517Z,4.88
2022-09-02T19:24:50.809Z,5.80
2022-09-02T19:27:34.762Z,5.45
2022-09-02T19:30:22.464Z,6.50
2022-09-02T19:32:57.254Z,4.57
2022-09-02T19:35:30.307Z,7.72
2022-09-02T19:37:57.240Z,6.15
2022-09-02T19:40:29.180Z,4.80
2022-09-02T19:42:56.168Z,5.70
2022-09-02T19:45:23.563Z,6.88
2022-09-02T19:48:06.675Z,5.47
2022-09-02T19:50:43.344Z,5.82
2022-09-02T19:53:22.819Z,6.70
2022-09-02T19:55:51.227Z,7.30
2022-09-02T19:58:26.950Z,7.65
2022-09-02T20:01:08.346Z,5.53
2022-09-02T20:03:35.522Z,8.23
2022-09-02T20:06:02.946Z,6.18
2022-09-02T20:08:31.195Z,7.05
2022-09-02T20:11:05.234Z,5.50
2022-09-02T20:13:41.334Z,5.35
2022-09-02T20:16:18.491Z,6.80
2022-09-02T20:18:46.723Z,8.90
2022-09-02T20:21:27.587Z,7.25
2022-09-02T20:23:58.754Z,7.38
2022-09-02T20:26:59.114Z,5.45
2022-09-02T20:29:49.571Z,6.85
2022-09-02T20:32:50.282Z,5.68
2022-09-02T20:36:02.482Z,6.97
2022-09-02T20:39:15.977Z,5.97
2022-09-02T20:42:03.461Z,6.60
2022-09-02T20:44:34.539Z,7.45
2022-09-02T20:47:25.200Z,5.07
2022-09-02T20:50:32.418Z,7.38
2022-09-02T20:53:24.587Z,8.38
2022-09-02T20:56:48.523Z,7.28
2022-09-02T21:00:05.374Z,8.23
2022-09-02T21:02:43.453Z,8.02
2022-09-02T21:05:23.983Z,9.13
2022-09-02T21:08:24.587Z,7.13
2022-09-02T21:11:01.038Z,7.35
2022-09-02T21:13:38.668Z,7.28
2022-09-02T21:16:19.726Z,8.30
2022-09-02T21:19:12.178Z,9.27
2022-09-02T21:21:45.073Z,8.43
2022-09-02T21:24:24.761Z,6.25
2022-09-02T21:27:11.096Z,7.85
2022-09-02T21:29:50.106Z,8.75
2022-09-02T21:32:40.558Z,7.10
2022-09-02T21:35:38.387Z,12.90
2022-09-02T21:38:35.923Z,10.55
2022-09-02T21:41:20.376Z,8.73
2022-09-02T21:44:01.035Z,8.23
2022-09-02T21:47:15.449Z,7.82
2022-09-02T21:50:22.019Z,9.50
2022-09-02T21:53:16.860Z,9.52
2022-09-02T21:55:43.745Z,8.82
2022-09-02T21:58:31.799Z,7.53
2022-09-02T22:01:09.710Z,8.90
2022-09-02T22:03:46.579Z,7.97
2022-09-02T22:06:22.738Z,8.05
2022-09-02T22:08:55.152Z,9.75
2022-09-02T22:11:54.907Z,12.50
2022-09-02T22:14:44.801Z,10.50
2022-09-02T22:17:37.116Z,9.40
2022-09-02T22:20:07.524Z,13.43
2022-09-02T22:22:44.769Z,9.18
2022-09-02T22:25:17.653Z,9.15
2022-09-02T22:28:04.658Z,10.25
2022-09-02T22:30:33.525Z,17.75
2022-09-02T22:33:14.690Z,12.65
2022-09-02T22:36:22.585Z,14.05
2022-09-02T22:38:53.376Z,11.45
2022-09-02T22:41:33.132Z,10.48
2022-09-02T22:44:22.859Z,16.13
2022-09-02T22:47:24.342Z,13.40
2022-09-02T22:50:15.227Z,9.70
2022-09-02T22:52:46.277Z,10.48
2022-09-02T22:55:38.252Z,10.70
2022-09-02T22:58:41.166Z,11.35
2022-09-02T23:01:25.805Z,12.02
2022-09-02T23:04:38.786Z,11.88
2022-09-02T23:07:06.551Z,12.00
2022-09-02T23:09:37.813Z,14.07
2022-09-02T23:12:25.097Z,12.20
2022-09-02T23:15:24.735Z,14.95
2022-09-02T23:18:01.507Z,11.55
2022-09-02T23:20:49.615Z,10.52
2022-09-02T23:23:52.428Z,16.90
2022-09-02T23:26:51.095Z,12.63
2022-09-02T23:29:28.702Z,11.65
2022-09-02T23:32:43.602Z,15.20
2022-09-02T23:35:49.126Z,16.48
2022-09-02T23:38:47.750Z,12.63
2022-09-02T23:41:15.266Z,13.27
2022-09-02T23:43:43.729Z,13.93
2022-09-02T23:46:50.572Z,11.57
2022-09-02T23:49:26.735Z,10.20
2022-09-02T23:52:15.062Z,13.32
2022-09-02T23:55:16.976Z,15.00
2022-09-02T23:58:25.751Z,12.10
